Time;durP1;ratioP1;P1;durP2;ratioP2;P2;SDS_P1;SDS_P2;PMS_P1;PMS_P2;Temp;Humidity;BMP_temperature;BMP_pressure;BME280_temperature;BME280_humidity;BME280_pressure;Samples;Min_cycle;Max_cycle;Signal;HPM_P1;HPM_P2
2024/01/21 00:01:25;;;;;;;12.55;8.35;;;0.40;99.90;;;;;;4997436;28;20426;-72
2024/01/21 00:03:51;;;;;;;11.75;8.45;;;0.40;99.90;;;;;;4989507;28;20049;-72
2024/01/21 00:06:17;;;;;;;12.52;8.60;;;0.40;99.90;;;;;;4993933;28;20446;-72
2024/01/21 00:08:43;;;;;;;12.55;8.98;;;0.40;99.90;;;;;;4991936;28;20041;-72
2024/01/21 00:11:08;;;;;;;16.55;9.38;;;0.40;99.90;;;;;;4992216;28;20582;-72
2024/01/21 00:13:34;;;;;;;15.07;8.65;;;0.40;99.90;;;;;;4999478;28;20127;-72
2024/01/21 00:16:00;;;;;;;12.82;8.70;;;0.40;99.90;;;;;;4998104;28;20392;-72
2024/01/21 00:18:26;;;;;;;12.60;8.32;;;0.40;99.90;;;;;;4992756;28;20550;-72
2024/01/21 00:20:51;;;;;;;12.95;9.10;;;0.40;99.90;;;;;;4980134;28;20042;-72
2024/01/21 00:23:17;;;;;;;14.25;9.93;;;0.40;99.90;;;;;;4996519;28;20124;-72
2024/01/21 00:25:43;;;;;;;16.40;9.55;;;0.40;99.90;;;;;;4986868;28;20061;-72
2024/01/21 00:28:09;;;;;;;12.43;8.93;;;0.30;99.90;;;;;;4995090;28;20580;-72
2024/01/21 00:30:34;;;;;;;13.80;9.45;;;0.30;99.90;;;;;;5013741;28;20053;-72
2024/01/21 00:33:00;;;;;;;14.52;10.35;;;0.30;99.90;;;;;;5028339;28;20049;-72
2024/01/21 00:35:26;;;;;;;14.68;10.55;;;0.20;99.90;;;;;;4994285;28;20085;-72
2024/01/21 00:37:52;;;;;;;13.43;10.07;;;0.20;99.90;;;;;;4993115;28;20058;-72
2024/01/21 00:40:18;;;;;;;15.57;10.23;;;0.20;99.90;;;;;;4995032;28;20081;-72
2024/01/21 00:42:43;;;;;;;15.65;11.10;;;0.20;99.90;;;;;;4989225;28;20076;-72
2024/01/21 00:45:09;;;;;;;14.23;10.13;;;0.10;99.90;;;;;;4991755;28;20387;-72
2024/01/21 00:47:35;;;;;;;15.25;10.52;;;0.10;99.90;;;;;;4984935;28;20046;-72
2024/01/21 00:50:03;;;;;;;16.80;10.68;;;0.10;99.90;;;;;;4990698;28;20049;-72
2024/01/21 00:52:28;;;;;;;15.20;10.77;;;0.10;99.90;;;;;;4993226;28;20042;-72
2024/01/21 00:54:54;;;;;;;14.43;10.80;;;0.10;99.90;;;;;;4994199;28;20555;-72
2024/01/21 00:57:20;;;;;;;14.77;10.90;;;0.10;99.90;;;;;;4997085;28;20042;-72
2024/01/21 00:59:46;;;;;;;15.35;10.25;;;0.10;99.90;;;;;;4996117;28;20046;-72
2024/01/21 01:02:13;;;;;;;17.30;11.68;;;0.10;99.90;;;;;;5015765;28;20042;-72
2024/01/21 01:04:39;;;;;;;14.27;10.52;;;0.10;99.90;;;;;;5002087;28;20057;-72
2024/01/21 01:07:05;;;;;;;14.63;10.60;;;0.10;99.90;;;;;;5008968;28;20442;-72
2024/01/21 01:09:30;;;;;;;16.10;11.20;;;0.10;99.90;;;;;;5014384;28;20369;-72
2024/01/21 01:11:56;;;;;;;14.50;10.35;;;0.10;99.90;;;;;;4981507;28;20459;-72
2024/01/21 01:14:22;;;;;;;15.10;10.32;;;0.20;99.90;;;;;;4982304;28;20224;-72
2024/01/21 01:16:48;;;;;;;17.52;10.65;;;0.30;99.90;;;;;;5022119;28;20056;-72
2024/01/21 01:19:14;;;;;;;14.13;10.10;;;0.20;99.90;;;;;;4994398;28;20046;-72
2024/01/21 01:21:39;;;;;;;14.93;10.02;;;0.20;99.90;;;;;;4992081;28;20096;-72
2024/01/21 01:24:05;;;;;;;14.38;10.23;;;0.20;99.90;;;;;;4998316;28;20042;-72
2024/01/21 01:26:31;;;;;;;13.35;9.50;;;0.20;99.90;;;;;;4997565;28;20034;-72
2024/01/21 01:28:58;;;;;;;15.85;9.63;;;0.30;99.90;;;;;;4994500;28;20294;-72
2024/01/21 01:31:24;;;;;;;16.52;9.75;;;0.30;99.90;;;;;;4992848;28;20052;-72
2024/01/21 01:33:50;;;;;;;14.07;10.13;;;0.30;99.90;;;;;;4988554;28;20053;-72
2024/01/21 01:36:16;;;;;;;13.57;9.38;;;0.30;99.90;;;;;;5025430;28;20038;-72
2024/01/21 01:38:41;;;;;;;13.00;9.32;;;0.40;99.90;;;;;;4977195;28;20332;-72
2024/01/21 01:41:07;;;;;;;12.93;9.05;;;0.40;99.90;;;;;;4998589;28;20076;-72
2024/01/21 01:43:33;;;;;;;13.63;9.02;;;0.40;99.90;;;;;;4981435;28;20108;-72
2024/01/21 01:46:00;;;;;;;14.07;9.68;;;0.50;99.90;;;;;;4973753;28;20073;-72
2024/01/21 01:48:28;;;;;;;15.80;9.27;;;0.50;99.90;;;;;;4998508;28;20046;-72
2024/01/21 01:50:55;;;;;;;13.63;9.35;;;0.50;99.90;;;;;;5000410;28;20532;-72
2024/01/21 01:53:21;;;;;;;12.05;9.05;;;0.50;99.90;;;;;;4987667;28;20446;-72
2024/01/21 01:55:47;;;;;;;13.57;9.10;;;0.50;99.90;;;;;;4979641;28;20042;-72
2024/01/21 01:58:15;;;;;;;13.23;8.95;;;0.50;99.90;;;;;;4995752;28;20175;-72
2024/01/21 02:00:42;;;;;;;12.68;8.68;;;0.50;99.90;;;;;;4999156;28;21362;-72
2024/01/21 02:03:12;;;;;;;14.40;9.07;;;0.50;99.90;;;;;;5025950;28;20046;-72
2024/01/21 02:05:37;;;;;;;12.50;7.80;;;0.50;99.90;;;;;;4992871;28;20049;-72
2024/01/21 02:08:04;;;;;;;14.35;8.57;;;0.50;95.40;;;;;;4996725;28;20049;-72
2024/01/21 02:10:30;;;;;;;14.63;8.55;;;0.50;91.90;;;;;;4990181;28;20049;-72
2024/01/21 02:12:57;;;;;;;12.50;8.52;;;0.50;76.60;;;;;;5023591;28;20073;-72
2024/01/21 02:15:23;;;;;;;12.95;8.18;;;0.40;55.40;;;;;;5011320;28;20049;-72
2024/01/21 02:17:49;;;;;;;12.43;8.05;;;0.40;42.80;;;;;;5023240;28;20050;-72
2024/01/21 02:20:15;;;;;;;12.32;8.05;;;0.40;33.00;;;;;;4979361;28;20116;-72
2024/01/21 02:22:42;;;;;;;12.40;8.00;;;0.50;34.00;;;;;;5018325;28;20125;-72
2024/01/21 02:25:09;;;;;;;13.82;8.38;;;0.40;22.80;;;;;;4993045;28;20485;-72
2024/01/21 02:27:36;;;;;;;11.90;8.10;;;0.40;9.80;;;;;;5000401;28;20060;-72
2024/01/21 02:30:03;;;;;;;14.05;7.88;;;0.40;1.00;;;;;;5013459;28;20062;-72
2024/01/21 02:32:29;;;;;;;12.20;7.90;;;0.40;1.00;;;;;;5023226;28;20558;-72
2024/01/21 02:34:55;;;;;;;11.80;8.10;;;0.30;1.00;;;;;;4978808;28;20034;-72
2024/01/21 02:37:21;;;;;;;11.82;7.35;;;0.30;1.00;;;;;;5011711;28;20061;-72
2024/01/21 02:39:46;;;;;;;11.25;6.88;;;0.40;1.00;;;;;;4980007;28;20056;-72
2024/01/21 02:42:12;;;;;;;11.60;8.05;;;0.40;1.00;;;;;;4981390;28;20482;-72
2024/01/21 02:44:38;;;;;;;12.63;6.88;;;0.40;1.00;;;;;;5023915;28;20037;-72
2024/01/21 02:47:04;;;;;;;11.23;6.88;;;0.40;1.00;;;;;;4975760;28;20033;-72
2024/01/21 02:49:30;;;;;;;10.93;7.18;;;0.40;1.00;;;;;;4999558;28;21236;-72
2024/01/21 02:51:56;;;;;;;11.25;7.18;;;0.40;1.00;;;;;;5002805;28;20045;-72
2024/01/21 02:54:23;;;;;;;9.55;6.60;;;0.40;1.00;;;;;;5001258;28;20080;-72
2024/01/21 02:56:49;;;;;;;9.65;6.30;;;0.40;1.00;;;;;;4997373;28;20050;-72
2024/01/21 02:59:15;;;;;;;9.77;6.20;;;0.50;1.00;;;;;;5003354;28;20566;-72
2024/01/21 03:01:41;;;;;;;10.57;6.38;;;0.50;1.00;;;;;;4983117;28;20405;-72
2024/01/21 03:04:11;;;;;;;10.98;6.75;;;0.50;1.00;;;;;;5000497;28;20046;-72
2024/01/21 03:06:37;;;;;;;8.60;6.00;;;0.60;1.00;;;;;;5025113;28;20104;-72
2024/01/21 03:09:03;;;;;;;8.60;5.90;;;0.60;1.00;;;;;;5004385;28;20543;-72
2024/01/21 03:11:31;;;;;;;9.00;5.60;;;0.50;1.00;;;;;;4999806;28;20070;-72
2024/01/21 03:13:57;;;;;;;9.85;5.20;;;0.50;1.00;;;;;;4982268;28;20053;-72
2024/01/21 03:16:22;;;;;;;9.90;5.30;;;0.60;1.00;;;;;;4995380;28;20331;-72
2024/01/21 03:18:48;;;;;;;8.40;5.07;;;0.60;1.00;;;;;;5026070;28;20044;-72
2024/01/21 03:21:14;;;;;;;9.70;5.38;;;0.60;1.00;;;;;;5000379;28;20498;-72
2024/01/21 03:23:40;;;;;;;8.23;5.15;;;0.60;1.00;;;;;;5030370;28;20042;-72
2024/01/21 03:26:06;;;;;;;6.80;4.70;;;0.60;1.00;;;;;;5022173;28;20082;-72
2024/01/21 03:28:31;;;;;;;8.52;4.88;;;0.60;1.00;;;;;;4993526;28;20128;-72
2024/01/21 03:30:57;;;;;;;9.10;5.20;;;0.60;1.00;;;;;;4988912;28;20132;-72
2024/01/21 03:33:25;;;;;;;7.22;4.68;;;0.60;1.00;;;;;;4996863;28;20073;-72
2024/01/21 03:35:50;;;;;;;7.45;4.47;;;0.70;1.00;;;;;;5024118;28;20607;-72
2024/01/21 03:38:16;;;;;;;7.63;4.50;;;0.60;99.90;;;;;;4984607;28;20054;-72
2024/01/21 03:40:42;;;;;;;7.30;4.60;;;0.60;99.90;;;;;;4980128;28;20038;-72
2024/01/21 03:43:08;;;;;;;6.35;3.90;;;0.60;99.90;;;;;;4991116;28;20060;-72
2024/01/21 03:45:34;;;;;;;7.00;4.10;;;0.50;99.90;;;;;;5002912;28;20112;-72
2024/01/21 03:48:00;;;;;;;5.75;3.88;;;0.40;99.90;;;;;;5016625;28;20045;-72
2024/01/21 03:50:25;;;;;;;5.55;4.05;;;0.40;99.90;;;;;;4991810;28;20628;-72
2024/01/21 03:52:51;;;;;;;6.25;3.80;;;0.40;99.90;;;;;;5000378;28;20381;-72
2024/01/21 03:55:19;;;;;;;6.75;3.80;;;0.40;99.90;;;;;;5031047;28;20045;-71
2024/01/21 03:57:45;;;;;;;6.07;3.53;;;0.50;99.90;;;;;;4993661;28;20261;-72
2024/01/21 04:00:12;;;;;;;5.53;3.75;;;0.50;99.90;;;;;;5025943;28;20045;-72
2024/01/21 04:02:38;;;;;;;7.40;3.83;;;0.50;99.90;;;;;;5006500;28;20533;-72
2024/01/21 04:05:05;;;;;;;5.90;3.75;;;0.50;99.90;;;;;;5003378;28;20046;-72
2024/01/21 04:07:31;;;;;;;5.78;3.47;;;0.50;99.90;;;;;;4997174;28;20053;-72
2024/01/21 04:09:57;;;;;;;3.72;3.13;;;0.50;99.90;;;;;;5013196;28;20042;-72
2024/01/21 04:12:23;;;;;;;4.85;3.22;;;0.40;99.90;;;;;;4980972;28;20069;-72
2024/01/21 04:14:49;;;;;;;4.63;3.60;;;0.40;99.90;;;;;;4996514;28;20065;-72
2024/01/21 04:17:14;;;;;;;4.15;3.25;;;0.40;99.90;;;;;;4998312;28;20042;-72
2024/01/21 04:19:40;;;;;;;6.40;3.50;;;0.50;99.90;;;;;;4981323;28;20077;-72
2024/01/21 04:22:06;;;;;;;4.40;3.20;;;0.60;99.90;;;;;;5023437;28;20501;-72
2024/01/21 04:24:32;;;;;;;7.10;3.00;;;0.60;99.90;;;;;;4994611;28;21680;-71
2024/01/21 04:26:57;;;;;;;5.60;3.22;;;0.80;99.90;;;;;;4992409;28;20042;-72
2024/01/21 04:29:23;;;;;;;3.95;2.75;;;0.70;99.90;;;;;;4995584;28;20050;-72
2024/01/21 04:31:49;;;;;;;4.50;3.00;;;0.80;99.90;;;;;;4992447;28;20033;-72
2024/01/21 04:34:14;;;;;;;4.82;3.20;;;0.80;99.90;;;;;;4995123;28;20104;-72
2024/01/21 04:36:40;;;;;;;5.35;2.80;;;0.80;99.90;;;;;;4990720;28;20313;-72
2024/01/21 04:39:06;;;;;;;4.35;2.80;;;0.80;99.90;;;;;;4977715;28;20475;-72
2024/01/21 04:41:32;;;;;;;4.20;2.70;;;0.80;99.90;;;;;;4999700;28;20050;-72
2024/01/21 04:43:58;;;;;;;4.40;2.75;;;0.80;99.90;;;;;;4996403;28;20489;-72
2024/01/21 04:46:24;;;;;;;3.92;2.60;;;0.80;99.90;;;;;;4991389;28;20050;-72
2024/01/21 04:48:50;;;;;;;4.70;2.85;;;0.90;99.90;;;;;;4995302;28;20300;-72
2024/01/21 04:51:16;;;;;;;5.43;2.88;;;0.90;99.90;;;;;;4994516;28;20042;-72
2024/01/21 04:53:43;;;;;;;3.95;2.88;;;1.00;99.90;;;;;;4997999;28;20410;-72
2024/01/21 04:56:18;;;;;;;5.15;2.70;;;0.90;99.90;;;;;;4998223;28;20128;-72
2024/01/21 04:58:45;;;;;;;3.80;2.70;;;1.00;99.90;;;;;;4988159;28;20084;-72
2024/01/21 05:01:11;;;;;;;4.70;2.92;;;1.00;99.90;;;;;;4986645;28;20450;-72
2024/01/21 05:03:37;;;;;;;3.92;2.40;;;1.00;99.90;;;;;;5024816;28;20054;-72
2024/01/21 05:06:04;;;;;;;4.72;2.60;;;1.00;99.90;;;;;;4994726;28;20445;-72
2024/01/21 05:08:29;;;;;;;4.50;2.80;;;0.90;99.90;;;;;;4991487;28;20077;-72
2024/01/21 05:10:55;;;;;;;4.35;2.72;;;1.10;99.90;;;;;;4979379;28;20046;-72
2024/01/21 05:13:21;;;;;;;3.53;2.53;;;1.00;99.90;;;;;;4996861;28;20148;-72
2024/01/21 05:15:47;;;;;;;3.83;2.50;;;1.00;99.90;;;;;;5022745;28;20041;-72
2024/01/21 05:18:13;;;;;;;4.38;2.80;;;1.00;99.90;;;;;;4990027;28;20038;-72
2024/01/21 05:20:38;;;;;;;2.95;2.58;;;1.00;99.90;;;;;;4987490;28;20041;-72
2024/01/21 05:23:04;;;;;;;5.30;2.97;;;1.00;99.90;;;;;;4976143;28;20042;-72
2024/01/21 05:25:30;;;;;;;3.45;2.45;;;0.90;99.90;;;;;;5019609;28;20049;-72
2024/01/21 05:27:56;;;;;;;5.95;2.80;;;0.90;99.90;;;;;;5015789;28;20037;-72
2024/01/21 05:30:22;;;;;;;3.10;2.40;;;0.90;99.90;;;;;;4998972;28;20048;-72
2024/01/21 05:32:50;;;;;;;4.65;2.78;;;0.90;99.90;;;;;;4997362;28;20109;-72
2024/01/21 05:35:17;;;;;;;4.30;2.60;;;0.90;99.90;;;;;;4980025;28;20578;-72
2024/01/21 05:37:42;;;;;;;3.92;2.58;;;1.00;99.90;;;;;;5021808;28;20586;-72
2024/01/21 05:40:09;;;;;;;4.72;2.90;;;1.00;99.90;;;;;;5013296;28;20057;-72
2024/01/21 05:42:34;;;;;;;4.25;2.97;;;1.00;99.90;;;;;;4995637;28;20043;-72
2024/01/21 05:45:01;;;;;;;5.57;2.88;;;1.10;99.90;;;;;;4993892;28;20042;-72
2024/01/21 05:47:27;;;;;;;4.38;3.13;;;1.10;99.90;;;;;;4991187;28;20038;-72
2024/01/21 05:49:52;;;;;;;7.35;3.60;;;1.20;99.90;;;;;;5013104;28;20048;-72
2024/01/21 05:52:18;;;;;;;4.80;3.05;;;1.20;99.90;;;;;;4982954;28;20034;-72
2024/01/21 05:54:44;;;;;;;4.20;3.38;;;1.30;99.90;;;;;;4998357;28;20076;-72
2024/01/21 05:57:10;;;;;;;6.63;3.53;;;1.30;99.90;;;;;;4999394;28;20490;-72
2024/01/21 05:59:35;;;;;;;4.68;3.05;;;1.30;99.90;;;;;;4996901;28;20497;-72
2024/01/21 06:02:01;;;;;;;4.25;2.95;;;1.40;99.90;;;;;;4978345;28;20050;-72
2024/01/21 06:04:27;;;;;;;5.80;3.65;;;1.40;99.90;;;;;;4995388;28;20037;-72
2024/01/21 06:06:53;;;;;;;5.32;3.53;;;1.40;99.90;;;;;;5005715;28;20128;-72
2024/01/21 06:09:19;;;;;;;5.07;3.30;;;1.40;99.90;;;;;;4993258;28;20042;-72
2024/01/21 06:11:44;;;;;;;4.68;3.40;;;1.50;99.90;;;;;;4980097;28;20463;-72
2024/01/21 06:14:11;;;;;;;4.95;3.65;;;1.50;99.90;;;;;;4975879;28;20046;-72
2024/01/21 06:16:37;;;;;;;5.47;3.53;;;1.50;99.90;;;;;;4981229;28;20266;-72
2024/01/21 06:19:04;;;;;;;6.43;3.40;;;1.50;99.90;;;;;;4995854;28;20582;-72
2024/01/21 06:21:30;;;;;;;6.40;3.75;;;1.50;99.90;;;;;;4978154;28;20261;-72
2024/01/21 06:23:56;;;;;;;5.18;3.60;;;1.50;99.90;;;;;;4994249;28;20057;-72
2024/01/21 06:26:22;;;;;;;5.15;3.80;;;1.50;99.50;;;;;;4981567;28;20045;-72
2024/01/21 06:28:51;;;;;;;5.68;4.10;;;1.50;99.90;;;;;;4983044;28;20142;-72
2024/01/21 06:31:17;;;;;;;6.65;4.25;;;1.50;94.50;;;;;;4981087;28;20045;-72
2024/01/21 06:33:44;;;;;;;6.13;3.80;;;1.50;94.60;;;;;;4991981;28;20189;-72
2024/01/21 06:36:10;;;;;;;6.22;4.40;;;1.50;92.40;;;;;;4995484;28;20046;-72
2024/01/21 06:38:38;;;;;;;5.95;4.15;;;1.70;94.10;;;;;;4992196;28;20053;-72
2024/01/21 06:41:04;;;;;;;7.05;4.18;;;1.60;87.20;;;;;;4994282;28;20117;-72
2024/01/21 06:43:30;;;;;;;8.13;4.80;;;1.60;91.80;;;;;;5020081;28;20523;-72
2024/01/21 06:45:55;;;;;;;8.95;4.68;;;1.60;81.70;;;;;;4978093;28;20075;-72
2024/01/21 06:48:21;;;;;;;7.40;5.00;;;1.60;75.50;;;;;;4984331;28;20038;-72
2024/01/21 06:50:48;;;;;;;7.90;4.85;;;1.50;62.20;;;;;;5026986;28;20132;-72
2024/01/21 06:53:17;;;;;;;5.90;4.22;;;1.50;55.20;;;;;;4981845;28;20652;-72
2024/01/21 06:55:44;;;;;;;7.18;4.63;;;1.60;48.30;;;;;;4995062;28;20535;-72
2024/01/21 06:58:10;;;;;;;7.28;4.75;;;1.60;44.80;;;;;;5025683;28;20050;-72
2024/01/21 07:00:35;;;;;;;6.25;4.60;;;1.60;38.00;;;;;;4992831;28;20045;-72
2024/01/21 07:03:01;;;;;;;8.25;5.60;;;1.60;35.30;;;;;;4980486;28;20069;-72
2024/01/21 07:05:27;;;;;;;8.40;5.03;;;1.60;29.60;;;;;;4982926;28;20038;-72
2024/01/21 07:07:53;;;;;;;8.57;5.00;;;1.60;25.10;;;;;;5016681;28;20381;-72
2024/01/21 07:10:19;;;;;;;7.82;5.15;;;1.60;22.90;;;;;;4992363;28;20045;-72
2024/01/21 07:12:45;;;;;;;8.25;5.20;;;1.60;15.00;;;;;;4981268;28;20042;-72
2024/01/21 07:15:11;;;;;;;7.97;5.32;;;1.50;7.30;;;;;;5010305;28;20044;-72
2024/01/21 07:17:37;;;;;;;7.47;5.10;;;1.50;1.00;;;;;;4997900;28;20026;-72
2024/01/21 07:20:03;;;;;;;8.30;5.43;;;1.50;1.00;;;;;;4995631;28;20468;-71
2024/01/21 07:22:29;;;;;;;7.80;5.68;;;1.60;1.00;;;;;;4991493;28;20054;-72
2024/01/21 07:24:54;;;;;;;10.07;6.28;;;1.60;1.00;;;;;;4978458;28;20398;-72
2024/01/21 07:27:21;;;;;;;9.32;5.75;;;1.60;1.00;;;;;;4990194;28;20049;-72
2024/01/21 07:29:47;;;;;;;7.13;4.90;;;1.60;1.00;;;;;;4984511;28;20058;-72
2024/01/21 07:32:12;;;;;;;7.35;5.50;;;1.50;1.00;;;;;;4988938;28;20034;-72
2024/01/21 07:34:38;;;;;;;7.70;5.40;;;1.50;1.00;;;;;;4999227;28;20049;-72
2024/01/21 07:37:04;;;;;;;8.32;5.68;;;1.50;1.00;;;;;;4996813;28;20049;-72
2024/01/21 07:39:29;;;;;;;7.63;5.82;;;1.60;1.00;;;;;;4996307;28;20382;-72
2024/01/21 07:41:55;;;;;;;8.32;5.68;;;1.50;1.00;;;;;;4988437;28;20111;-72
2024/01/21 07:44:21;;;;;;;7.85;5.32;;;1.50;1.00;;;;;;4998470;28;20417;-72
2024/01/21 07:46:48;;;;;;;7.93;5.53;;;1.50;1.00;;;;;;5000605;28;20088;-72
2024/01/21 07:49:14;;;;;;;11.80;5.93;;;1.50;1.00;;;;;;5001735;28;20254;-72
2024/01/21 07:51:39;;;;;;;8.93;5.68;;;1.60;1.00;;;;;;5002968;28;20046;-71
2024/01/21 07:54:05;;;;;;;7.15;5.40;;;1.60;1.00;;;;;;4999752;28;20519;-71
2024/01/21 07:56:31;;;;;;;8.40;5.68;;;1.60;1.00;;;;;;4991726;28;20050;-72
2024/01/21 07:58:57;;;;;;;7.72;5.45;;;1.50;1.00;;;;;;5005008;28;20049;-72
2024/01/21 08:01:24;;;;;;;8.65;5.75;;;1.60;1.00;;;;;;4995410;28;20276;-72
2024/01/21 08:03:49;;;;;;;8.18;5.43;;;1.60;1.00;;;;;;4992650;28;20046;-72
2024/01/21 08:06:15;;;;;;;8.82;6.00;;;1.70;1.00;;;;;;4982333;28;20370;-72
2024/01/21 08:08:41;;;;;;;8.88;5.53;;;1.70;1.00;;;;;;4989691;28;20042;-72
2024/01/21 08:11:07;;;;;;;8.02;5.82;;;1.70;1.00;;;;;;4998575;28;20608;-72
2024/01/21 08:13:33;;;;;;;8.35;5.82;;;1.70;1.00;;;;;;4993662;28;20054;-72
2024/01/21 08:15:59;;;;;;;9.57;5.97;;;1.80;1.00;;;;;;5027056;28;20103;-72
2024/01/21 08:18:24;;;;;;;8.82;5.80;;;1.70;1.00;;;;;;4994095;28;20512;-72
2024/01/21 08:20:51;;;;;;;7.68;5.63;;;1.70;1.00;;;;;;4993626;28;20045;-72
2024/01/21 08:23:16;;;;;;;9.73;6.70;;;1.80;1.00;;;;;;5030211;28;20042;-72
2024/01/21 08:25:42;;;;;;;8.70;5.80;;;1.90;1.00;;;;;;4999457;28;20045;-72
2024/01/21 08:28:08;;;;;;;9.27;5.82;;;1.90;1.00;;;;;;5012865;28;20040;-72
2024/01/21 08:30:34;;;;;;;11.25;6.15;;;1.90;1.00;;;;;;4996052;28;20046;-72
2024/01/21 08:33:00;;;;;;;8.25;5.65;;;2.00;1.00;;;;;;4998048;28;20049;-72
2024/01/21 08:35:25;;;;;;;8.30;5.70;;;2.00;1.00;;;;;;4990699;28;20046;-72
2024/01/21 08:37:51;;;;;;;9.45;5.63;;;2.00;1.00;;;;;;4982442;28;21017;-72
2024/01/21 08:40:17;;;;;;;7.93;5.97;;;2.00;1.00;;;;;;4983948;28;20049;-72
2024/01/21 08:42:42;;;;;;;9.40;6.18;;;2.00;1.00;;;;;;5015444;28;20049;-72
2024/01/21 08:45:09;;;;;;;8.02;5.93;;;1.90;1.00;;;;;;5013506;28;20034;-72
2024/01/21 08:47:34;;;;;;;8.60;5.80;;;1.90;1.00;;;;;;4982136;28;20117;-72
2024/01/21 08:50:00;;;;;;;9.85;6.03;;;1.80;1.00;;;;;;4983531;28;20134;-72
2024/01/21 08:52:26;;;;;;;8.93;6.13;;;1.90;1.00;;;;;;4997226;28;20072;-72
2024/01/21 08:54:52;;;;;;;7.55;5.40;;;1.90;1.00;;;;;;4995142;28;20051;-72
2024/01/21 08:57:18;;;;;;;11.73;6.03;;;2.10;1.00;;;;;;4998297;28;20045;-72
2024/01/21 08:59:44;;;;;;;8.55;5.68;;;2.20;15.90;;;;;;4989743;28;20038;-72
2024/01/21 09:02:10;;;;;;;10.13;6.03;;;2.30;37.50;;;;;;4993871;28;20041;-72
2024/01/21 09:04:40;;;;;;;8.50;5.72;;;2.30;52.80;;;;;;4997239;28;20120;-72
2024/01/21 09:07:06;;;;;;;8.07;5.75;;;2.40;53.20;;;;;;4974851;28;20498;-72
2024/01/21 09:09:33;;;;;;;8.57;6.38;;;2.50;67.20;;;;;;5014001;28;20049;-72
2024/01/21 09:11:59;;;;;;;7.80;5.47;;;2.50;85.10;;;;;;4983040;28;20077;-72
2024/01/21 09:14:25;;;;;;;8.80;5.82;;;2.40;64.30;;;;;;4990497;28;20085;-72
2024/01/21 09:16:51;;;;;;;7.88;6.03;;;2.40;64.30;;;;;;5010271;28;20062;-72
2024/01/21 09:19:17;;;;;;;9.27;5.63;;;2.40;64.50;;;;;;5012030;28;20073;-72
2024/01/21 09:21:43;;;;;;;7.80;5.80;;;2.50;74.80;;;;;;4983465;28;20041;-72
2024/01/21 09:24:08;;;;;;;11.35;6.03;;;2.60;89.60;;;;;;4997038;28;20042;-72
2024/01/21 09:26:34;;;;;;;9.43;6.53;;;2.70;98.20;;;;;;4982287;28;20051;-72
2024/01/21 09:29:01;;;;;;;8.77;6.10;;;2.70;99.90;;;;;;4980811;28;20234;-72
2024/01/21 09:31:27;;;;;;;8.68;6.40;;;2.70;99.90;;;;;;4978711;28;20149;-72
2024/01/21 09:33:52;;;;;;;9.20;6.05;;;2.80;99.90;;;;;;4997106;28;20199;-72
2024/01/21 09:36:19;;;;;;;9.95;5.72;;;2.90;99.90;;;;;;4999098;28;20065;-72
2024/01/21 09:38:45;;;;;;;10.18;5.72;;;3.10;99.90;;;;;;4995584;28;20050;-72
2024/01/21 09:41:37;;;;;;;10.32;5.90;;;3.20;99.90;;;;;;5006225;28;20064;-72
2024/01/21 09:44:03;;;;;;;7.90;5.60;;;3.00;99.90;;;;;;4996879;28;20206;-72
2024/01/21 09:46:29;;;;;;;9.48;6.68;;;3.00;99.90;;;;;;5004582;28;20062;-72
2024/01/21 09:48:59;;;;;;;7.88;5.95;;;3.10;99.90;;;;;;4979855;28;20153;-72
2024/01/21 09:51:24;;;;;;;9.57;6.43;;;3.10;99.90;;;;;;4982674;28;20498;-72
2024/01/21 09:53:50;;;;;;;9.10;5.97;;;3.10;99.90;;;;;;4989405;28;20141;-72
2024/01/21 09:56:18;;;;;;;10.10;6.28;;;3.00;99.90;;;;;;4995090;28;20506;-72
2024/01/21 09:58:50;;;;;;;10.60;6.28;;;3.00;99.90;;;;;;4993596;28;20042;-72
2024/01/21 10:01:16;;;;;;;8.50;6.07;;;3.00;99.90;;;;;;4996110;28;20049;-72
2024/01/21 10:03:43;;;;;;;8.95;6.35;;;3.00;99.90;;;;;;4981265;28;20074;-72
2024/01/21 10:06:09;;;;;;;10.15;6.50;;;3.10;99.90;;;;;;4991375;28;20060;-72
2024/01/21 10:08:45;;;;;;;8.75;5.95;;;3.30;99.90;;;;;;5023694;28;20038;-72
2024/01/21 10:11:10;;;;;;;9.00;6.20;;;3.40;99.90;;;;;;5025326;28;20038;-72
2024/01/21 10:13:38;;;;;;;9.43;6.45;;;3.60;99.90;;;;;;4992734;28;20104;-72
2024/01/21 10:16:08;;;;;;;8.75;6.28;;;3.50;99.90;;;;;;5008691;28;20046;-72
2024/01/21 10:18:35;;;;;;;9.05;6.85;;;3.60;99.90;;;;;;4987442;28;20117;-72
2024/01/21 10:21:05;;;;;;;8.45;6.38;;;3.50;99.90;;;;;;5020140;28;20116;-72
2024/01/21 10:23:31;;;;;;;10.15;6.93;;;3.50;99.90;;;;;;4995796;28;20046;-72
2024/01/21 10:25:57;;;;;;;9.43;6.70;;;3.60;99.90;;;;;;4994337;28;20044;-72
2024/01/21 10:28:23;;;;;;;8.65;6.25;;;3.60;99.90;;;;;;4982672;28;20480;-72
2024/01/21 10:30:49;;;;;;;9.55;5.78;;;3.70;99.90;;;;;;4978682;28;20191;-72
2024/01/21 10:33:15;;;;;;;11.00;6.68;;;4.00;99.90;;;;;;4982477;28;20044;-72
2024/01/21 10:35:41;;;;;;;10.60;6.90;;;4.10;99.90;;;;;;4995393;28;20046;-72
2024/01/21 10:38:11;;;;;;;9.95;6.82;;;4.10;99.90;;;;;;4981361;28;20420;-71
2024/01/21 10:40:44;;;;;;;9.30;6.57;;;4.10;99.90;;;;;;4982803;28;20062;-71
2024/01/21 10:43:16;;;;;;;9.68;7.05;;;4.00;99.90;;;;;;4990909;28;20050;-71
2024/01/21 10:45:46;;;;;;;9.40;7.30;;;4.00;99.90;;;;;;4995428;28;20042;-71
2024/01/21 10:48:15;;;;;;;9.68;6.63;;;4.00;99.90;;;;;;4995753;28;20038;-72
2024/01/21 10:50:42;;;;;;;10.40;6.80;;;3.90;99.90;;;;;;4995147;28;20054;-71
2024/01/21 10:53:12;;;;;;;11.00;6.65;;;3.90;99.90;;;;;;4993352;28;20125;-71
2024/01/21 10:55:41;;;;;;;10.38;6.95;;;4.00;1.00;;;;;;4998786;28;20109;-71
2024/01/21 10:58:08;;;;;;;11.05;7.38;;;4.00;1.00;;;;;;5001037;28;20049;-72
2024/01/21 11:00:40;;;;;;;9.48;6.60;;;4.10;1.00;;;;;;5001609;28;20054;-72
2024/01/21 11:03:25;;;;;;;10.90;6.93;;;4.10;1.00;;;;;;4997996;28;20046;-71
2024/01/21 11:06:00;;;;;;;10.23;6.85;;;4.10;1.00;;;;;;5012002;28;20527;-71
2024/01/21 11:08:26;;;;;;;9.82;6.97;;;4.20;1.00;;;;;;4990005;28;20042;-71
2024/01/21 11:11:16;;;;;;;8.25;6.32;;;4.20;1.00;;;;;;4999915;28;20046;-72
2024/01/21 11:13:50;;;;;;;9.68;7.07;;;4.30;1.00;;;;;;4996441;28;20049;-72
2024/01/21 11:16:25;;;;;;;11.17;7.37;;;4.40;1.00;;;;;;4986948;28;20049;-72
2024/01/21 11:19:05;;;;;;;;;;;4.40;1.00;;;;;;4986217;28;20139;-72
2024/01/21 11:21:32;;;;;;;11.27;6.63;;;4.30;1.00;;;;;;5026436;28;19925;-72
2024/01/21 11:24:12;;;;;;;11.57;7.10;;;4.40;12.70;;;;;;5001304;28;20461;-72
2024/01/21 11:26:43;;;;;;;9.00;7.05;;;4.40;1.00;;;;;;4993905;28;20404;-72
2024/01/21 11:29:29;;;;;;;12.13;7.43;;;4.30;27.30;;;;;;4999253;28;20050;-72
2024/01/21 11:32:02;;;;;;;9.45;6.60;;;4.30;55.60;;;;;;5013159;28;20081;-72
2024/01/21 11:34:38;;;;;;;9.85;7.10;;;4.30;82.90;;;;;;4991725;28;20057;-72
2024/01/21 11:37:06;;;;;;;10.98;7.20;;;4.30;99.90;;;;;;4989931;28;20128;-72
2024/01/21 11:39:32;;;;;;;11.45;7.53;;;4.30;99.90;;;;;;5015922;28;20045;-72
2024/01/21 11:41:57;;;;;;;12.07;7.45;;;4.40;99.90;;;;;;4982803;28;20045;-72
2024/01/21 11:44:26;;;;;;;9.65;7.00;;;4.40;99.90;;;;;;4983999;28;20050;-72
2024/01/21 11:46:57;;;;;;;10.80;7.45;;;4.40;99.90;;;;;;4996485;28;20575;-72
2024/01/21 11:49:23;;;;;;;10.48;7.38;;;4.40;99.90;;;;;;4981050;28;20064;-72
2024/01/21 11:51:49;;;;;;;9.43;6.90;;;4.50;99.90;;;;;;4983917;28;20392;-72
2024/01/21 11:54:16;;;;;;;11.05;6.78;;;4.50;99.90;;;;;;4994406;28;20117;-72
2024/01/21 11:56:43;;;;;;;9.18;6.72;;;4.40;99.90;;;;;;4979918;28;20129;-72
2024/01/21 11:59:10;;;;;;;12.27;7.90;;;4.60;27.20;;;;;;5017322;28;20655;-72
2024/01/21 12:01:40;;;;;;;11.77;7.53;;;4.50;1.00;;;;;;5000364;28;20077;-73
2024/01/21 12:04:07;;;;;;;10.05;6.93;;;4.50;1.00;;;;;;4996438;28;20085;-72
2024/01/21 12:06:39;;;;;;;11.85;7.07;;;4.40;1.00;;;;;;4999848;28;20116;-72
2024/01/21 12:09:06;;;;;;;11.48;7.65;;;4.40;1.00;;;;;;4997368;28;20049;-72
2024/01/21 12:11:35;;;;;;;12.07;7.40;;;4.40;6.20;;;;;;5000007;28;20037;-72
2024/01/21 12:14:04;;;;;;;10.30;7.40;;;4.30;92.60;;;;;;4997161;28;20072;-72
2024/01/21 12:16:29;;;;;;;10.25;7.85;;;4.30;99.90;;;;;;4998455;28;20057;-72
2024/01/21 12:18:56;;;;;;;11.55;7.80;;;4.30;99.90;;;;;;5003381;28;20146;-72
2024/01/21 12:21:25;;;;;;;10.95;7.75;;;4.20;1.00;;;;;;4994911;28;20052;-72
2024/01/21 12:23:52;;;;;;;11.07;7.88;;;4.20;1.00;;;;;;4995598;28;20130;-72
2024/01/21 12:26:20;;;;;;;10.88;7.70;;;4.30;1.00;;;;;;4984860;28;20052;-72
2024/01/21 12:29:19;;;;;;;10.23;7.32;;;4.30;1.00;;;;;;5026767;28;20046;-72
2024/01/21 12:31:45;;;;;;;12.20;7.97;;;4.30;50.00;;;;;;4976676;28;20061;-72
2024/01/21 12:34:12;;;;;;;10.98;7.85;;;4.30;99.90;;;;;;4991087;28;20050;-72
2024/01/21 12:36:46;;;;;;;11.38;8.27;;;4.30;99.90;;;;;;4982037;28;20054;-72
2024/01/21 12:39:13;;;;;;;12.88;7.90;;;4.30;99.90;;;;;;4997354;28;20534;-72
2024/01/21 12:41:39;;;;;;;12.07;7.88;;;4.30;99.90;;;;;;4996460;28;20041;-78
2024/01/21 12:44:05;;;;;;;11.82;8.23;;;4.30;99.90;;;;;;4983280;28;20046;-74
2024/01/21 12:46:34;;;;;;;10.68;7.60;;;4.40;99.90;;;;;;5022498;28;20042;-73
2024/01/21 12:49:13;;;;;;;11.68;7.95;;;4.40;99.90;;;;;;4981524;28;20073;-72
2024/01/21 12:51:55;;;;;;;13.20;8.20;;;4.40;99.90;;;;;;4981967;28;20056;-72
2024/01/21 12:54:31;;;;;;;13.18;8.48;;;4.30;1.00;;;;;;4983505;28;20073;-72